Time;durP1;ratioP1;P1;durP2;ratioP2;P2;SDS_P1;SDS_P2;PMS_P1;PMS_P2;Temp;Humidity;BMP_temperature;BMP_pressure;BME280_temperature;BME280_humidity;BME280_pressure;Samples;Min_cycle;Max_cycle;Signal;HPM_P1;HPM_P2
2021/01/09 00:01:21;;;;;;;36.30;19.87;;;;;;;;;;4406650;32;20230;-79
2021/01/09 00:03:47;;;;;;;36.87;20.03;;;;;;;;;;4406629;32;20594;-79
2021/01/09 00:06:12;;;;;;;31.70;19.70;;;;;;;;;;4407387;32;20180;-79
2021/01/09 00:08:38;;;;;;;33.67;18.27;;;;;;;;;;4406274;32;20208;-79
2021/01/09 00:11:03;;;;;;;31.50;18.20;;;;;;;;;;4406844;32;20188;-79
2021/01/09 00:13:34;;;;;;;30.07;17.47;;;;;;;;;;4406893;32;20161;-79
2021/01/09 00:15:59;;;;;;;33.00;18.03;;;;;;;;;;4406388;32;20575;-79
2021/01/09 00:18:25;;;;;;;34.70;18.53;;;;;;;;;;4407179;32;20213;-79
2021/01/09 00:20:50;;;;;;;34.53;19.63;;;;;;;;;;4393802;32;20483;-79
2021/01/09 00:23:25;;;;;;;35.97;18.37;;;;;;;;;;4406983;32;20161;-79
2021/01/09 00:25:51;;;;;;;27.87;17.67;;;;;;;;;;4406833;32;20165;-79
2021/01/09 00:28:16;;;;;;;35.20;20.53;;;;;;;;;;4406479;32;20209;-79
2021/01/09 00:30:43;;;;;;;32.77;18.13;;;;;;;;;;4409576;32;20170;-79
2021/01/09 00:33:11;;;;;;;31.00;17.80;;;;;;;;;;4409359;32;20204;-79
2021/01/09 00:35:38;;;;;;;32.13;18.00;;;;;;;;;;4409392;32;20160;-79
2021/01/09 00:38:12;;;;;;;30.70;17.47;;;;;;;;;;4423785;32;20141;-78
2021/01/09 00:40:37;;;;;;;29.07;16.47;;;;;;;;;;4410138;32;20218;-79
2021/01/09 00:43:02;;;;;;;29.80;16.60;;;;;;;;;;4409201;32;20166;-79
2021/01/09 00:45:28;;;;;;;32.20;17.83;;;;;;;;;;4409377;32;20200;-79
2021/01/09 00:47:58;;;;;;;28.30;17.07;;;;;;;;;;4409302;32;20213;-79
2021/01/09 00:50:26;;;;;;;30.20;17.77;;;;;;;;;;4409997;32;20188;-79
2021/01/09 00:52:58;;;;;;;31.67;18.13;;;;;;;;;;4424179;32;20195;-79
2021/01/09 00:55:24;;;;;;;31.23;17.07;;;;;;;;;;4409276;32;20174;-79
2021/01/09 00:57:52;;;;;;;26.50;16.33;;;;;;;;;;4409107;32;20185;-79
2021/01/09 01:00:18;;;;;;;29.83;18.07;;;;;;;;;;4409044;32;20189;-79
2021/01/09 01:02:45;;;;;;;29.23;17.40;;;;;;;;;;4409053;32;20591;-79
2021/01/09 01:05:10;;;;;;;28.40;17.73;;;;;;;;;;4409001;32;20214;-79
2021/01/09 01:07:39;;;;;;;27.67;16.17;;;;;;;;;;4410202;32;20613;-79
2021/01/09 01:10:05;;;;;;;30.13;16.80;;;;;;;;;;4409481;32;20166;-79
2021/01/09 01:12:30;;;;;;;24.53;15.73;;;;;;;;;;4408778;32;20540;-79
2021/01/09 01:14:56;;;;;;;31.40;17.53;;;;;;;;;;4408794;32;20169;-79
2021/01/09 01:17:21;;;;;;;25.93;16.33;;;;;;;;;;4408889;32;20603;-79
2021/01/09 01:19:47;;;;;;;29.07;16.33;;;;;;;;;;4409332;32;20154;-78
2021/01/09 01:22:12;;;;;;;28.00;16.53;;;;;;;;;;4408722;32;20658;-79
2021/01/09 01:24:40;;;;;;;26.77;15.07;;;;;;;;;;4422400;32;20284;-78
2021/01/09 01:27:11;;;;;;;26.77;16.13;;;;;;;;;;4408691;32;20177;-79
2021/01/09 01:29:41;;;;;;;26.37;15.47;;;;;;;;;;4408667;32;20180;-79
2021/01/09 01:32:09;;;;;;;26.97;15.10;;;;;;;;;;4408634;32;20218;-78
2021/01/09 01:34:37;;;;;;;26.50;15.50;;;;;;;;;;4408670;32;20184;-79
2021/01/09 01:37:02;;;;;;;22.97;14.33;;;;;;;;;;4408963;32;20157;-79
2021/01/09 01:39:28;;;;;;;32.70;17.13;;;;;;;;;;4408490;32;20303;-79
2021/01/09 01:41:56;;;;;;;26.67;15.27;;;;;;;;;;4408483;32;20161;-78
2021/01/09 01:44:22;;;;;;;25.60;14.73;;;;;;;;;;4408584;32;20165;-78
2021/01/09 01:46:47;;;;;;;25.40;14.50;;;;;;;;;;4408503;32;20502;-78
2021/01/09 01:49:13;;;;;;;30.30;17.13;;;;;;;;;;4408407;32;20162;-78
2021/01/09 01:51:51;;;;;;;;;;;;;;;;;;;;;
2021/01/09 01:54:23;;;;;;;26.53;14.23;;;;;;;;;;4420623;32;20597;-78
2021/01/09 01:56:51;;;;;;;24.57;14.60;;;;;;;;;;4408484;32;20220;-78
2021/01/09 01:59:17;;;;;;;26.90;14.30;;;;;;;;;;4408349;32;20158;-78
2021/01/09 02:01:44;;;;;;;23.87;14.50;;;;;;;;;;4408636;32;20157;-78
2021/01/09 02:04:09;;;;;;;26.70;15.50;;;;;;;;;;4408269;32;20188;-78
2021/01/09 02:06:35;;;;;;;27.73;14.73;;;;;;;;;;4407906;32;20519;-79
2021/01/09 02:09:14;;;;;;;31.30;15.63;;;;;;;;;;4408402;32;20162;-78
2021/01/09 02:11:58;;;;;;;25.73;14.17;;;;;;;;;;4408819;32;20190;-78
2021/01/09 02:14:41;;;;;;;25.17;14.30;;;;;;;;;;4421868;32;20179;-78
2021/01/09 02:17:07;;;;;;;23.00;13.27;;;;;;;;;;4408951;32;20170;-78
2021/01/09 02:19:42;;;;;;;24.60;14.03;;;;;;;;;;4408133;32;20230;-78
2021/01/09 02:22:17;;;;;;;23.10;13.03;;;;;;;;;;4422305;32;20160;-78
2021/01/09 02:24:43;;;;;;;25.27;13.97;;;;;;;;;;4407850;32;20160;-78
2021/01/09 02:27:09;;;;;;;26.83;13.53;;;;;;;;;;4407941;32;20227;-78
2021/01/09 02:29:36;;;;;;;20.47;12.17;;;;;;;;;;4407950;32;20189;-78
2021/01/09 02:32:03;;;;;;;23.57;13.97;;;;;;;;;;4408225;32;20165;-78
2021/01/09 02:34:49;;;;;;;25.70;13.40;;;;;;;;;;4408146;32;20266;-78
2021/01/09 02:37:14;;;;;;;19.73;10.83;;;;;;;;;;4406728;32;20599;-78
2021/01/09 02:39:40;;;;;;;20.63;11.17;;;;;;;;;;4407699;32;20188;-78
2021/01/09 02:42:05;;;;;;;18.13;10.30;;;;;;;;;;4407718;32;20586;-78
2021/01/09 02:44:31;;;;;;;20.27;10.70;;;;;;;;;;4407701;32;20713;-77
2021/01/09 02:46:56;;;;;;;18.17;10.67;;;;;;;;;;4407661;32;20161;-77
2021/01/09 02:49:22;;;;;;;18.23;9.13;;;;;;;;;;4407821;32;20491;-77
2021/01/09 02:51:50;;;;;;;17.47;9.50;;;;;;;;;;4407600;32;20191;-77
2021/01/09 02:54:18;;;;;;;16.87;10.13;;;;;;;;;;4408452;32;20574;-77
2021/01/09 02:56:43;;;;;;;17.73;9.07;;;;;;;;;;4407504;32;20170;-77
2021/01/09 02:59:11;;;;;;;18.33;9.33;;;;;;;;;;4407427;32;20166;-77
2021/01/09 03:01:37;;;;;;;15.43;8.90;;;;;;;;;;4407873;32;20474;-79
2021/01/09 03:04:02;;;;;;;15.07;9.37;;;;;;;;;;4407431;32;20574;-79
2021/01/09 03:06:37;;;;;;;14.80;8.70;;;;;;;;;;4407297;32;20575;-79
2021/01/09 03:09:04;;;;;;;12.97;8.37;;;;;;;;;;4407607;32;20161;-79
2021/01/09 03:11:32;;;;;;;16.47;8.73;;;;;;;;;;4407300;32;20162;-79
2021/01/09 03:13:58;;;;;;;18.90;9.90;;;;;;;;;;4407263;32;20160;-79
2021/01/09 03:16:23;;;;;;;16.83;9.03;;;;;;;;;;4407542;32;20153;-79
2021/01/09 03:18:48;;;;;;;13.47;8.10;;;;;;;;;;4407238;32;20197;-79
2021/01/09 03:21:13;;;;;;;14.83;7.93;;;;;;;;;;4408189;32;20233;-79
2021/01/09 03:23:39;;;;;;;17.50;8.53;;;;;;;;;;4407305;32;20214;-79
2021/01/09 03:26:04;;;;;;;13.90;7.13;;;;;;;;;;4407098;32;20162;-79
2021/01/09 03:28:29;;;;;;;16.53;8.00;;;;;;;;;;4407284;32;20506;-79
2021/01/09 03:30:54;;;;;;;14.90;7.47;;;;;;;;;;4406989;32;20657;-79
2021/01/09 03:33:20;;;;;;;12.47;7.10;;;;;;;;;;4408108;32;20180;-79
2021/01/09 03:35:45;;;;;;;10.97;5.90;;;;;;;;;;4406908;32;20162;-79
2021/01/09 03:38:10;;;;;;;13.83;6.90;;;;;;;;;;4406886;32;20233;-79
2021/01/09 03:40:36;;;;;;;11.40;6.30;;;;;;;;;;4406907;32;20161;-79
2021/01/09 03:43:02;;;;;;;11.90;6.43;;;;;;;;;;4407349;32;20209;-79
2021/01/09 03:45:27;;;;;;;10.20;6.07;;;;;;;;;;4407308;32;20189;-79
2021/01/09 03:47:52;;;;;;;8.90;5.50;;;;;;;;;;4394273;32;20244;-79
2021/01/09 03:50:20;;;;;;;12.27;6.03;;;;;;;;;;4406671;32;20193;-79
2021/01/09 03:52:45;;;;;;;12.43;6.37;;;;;;;;;;4406599;32;20177;-79
2021/01/09 03:55:10;;;;;;;13.80;5.87;;;;;;;;;;4407115;32;20285;-79
2021/01/09 03:57:39;;;;;;;8.23;5.33;;;;;;;;;;4407187;32;20161;-79
2021/01/09 04:00:05;;;;;;;12.17;6.43;;;;;;;;;;4406626;32;20215;-79
2021/01/09 04:02:30;;;;;;;12.70;7.10;;;;;;;;;;4407488;32;20183;-79
2021/01/09 04:04:55;;;;;;;13.70;6.87;;;;;;;;;;4406005;32;20162;-79
2021/01/09 04:07:21;;;;;;;16.30;6.43;;;;;;;;;;4401673;32;20201;-79
2021/01/09 04:09:49;;;;;;;11.20;6.57;;;;;;;;;;4405958;32;20134;-79
2021/01/09 04:12:14;;;;;;;13.20;6.50;;;;;;;;;;4391920;32;20166;-79
2021/01/09 04:14:40;;;;;;;14.20;6.57;;;;;;;;;;4391158;32;20293;-79
2021/01/09 04:17:05;;;;;;;11.50;5.40;;;;;;;;;;4391720;32;20166;-79
2021/01/09 04:19:30;;;;;;;13.33;6.50;;;;;;;;;;4391724;32;20161;-79
2021/01/09 04:21:56;;;;;;;11.33;6.80;;;;;;;;;;4391295;32;20169;-79
2021/01/09 04:24:22;;;;;;;10.53;6.03;;;;;;;;;;4391663;32;20181;-79
2021/01/09 04:26:58;;;;;;;17.00;7.13;;;;;;;;;;4391707;32;20191;-79
2021/01/09 04:29:23;;;;;;;16.20;7.20;;;;;;;;;;4379425;32;20191;-79
2021/01/09 04:31:49;;;;;;;14.33;7.33;;;;;;;;;;4391008;32;20200;-79
2021/01/09 04:34:15;;;;;;;14.67;7.33;;;;;;;;;;4392285;32;20166;-79
2021/01/09 04:36:40;;;;;;;14.20;7.33;;;;;;;;;;4391332;32;20233;-79
2021/01/09 04:39:05;;;;;;;15.30;7.80;;;;;;;;;;4391115;32;20579;-79
2021/01/09 04:41:33;;;;;;;14.10;7.20;;;;;;;;;;4391148;32;20162;-79
2021/01/09 04:43:58;;;;;;;14.80;7.73;;;;;;;;;;4391501;32;20173;-79
2021/01/09 04:46:26;;;;;;;12.13;7.47;;;;;;;;;;4391073;32;20189;-79
2021/01/09 04:48:52;;;;;;;11.63;6.93;;;;;;;;;;4391804;32;20184;-79
2021/01/09 04:51:18;;;;;;;13.17;6.93;;;;;;;;;;4391848;32;20554;-78
2021/01/09 04:53:43;;;;;;;12.70;8.13;;;;;;;;;;4391097;32;20162;-79
2021/01/09 04:56:09;;;;;;;12.37;6.77;;;;;;;;;;4404903;32;20170;-78
2021/01/09 04:58:34;;;;;;;13.50;8.67;;;;;;;;;;4390977;32;20491;-78
2021/01/09 05:01:07;;;;;;;12.93;6.87;;;;;;;;;;4391026;32;20188;-77
2021/01/09 05:03:33;;;;;;;11.00;6.83;;;;;;;;;;4392463;32;20184;-77
2021/01/09 05:05:58;;;;;;;12.20;7.20;;;;;;;;;;4405047;32;20166;-77
2021/01/09 05:08:23;;;;;;;12.57;7.30;;;;;;;;;;4401073;32;20617;-77
2021/01/09 05:10:49;;;;;;;10.77;6.57;;;;;;;;;;4406071;32;20503;-77
2021/01/09 05:13:15;;;;;;;12.30;6.83;;;;;;;;;;4405984;32;20621;-77
2021/01/09 05:15:41;;;;;;;10.90;6.53;;;;;;;;;;4408102;32;20158;-77
2021/01/09 05:18:06;;;;;;;13.90;7.47;;;;;;;;;;4409272;32;20184;-77
2021/01/09 05:20:33;;;;;;;12.00;6.33;;;;;;;;;;4409712;32;20173;-77
2021/01/09 05:22:59;;;;;;;10.30;6.80;;;;;;;;;;4408833;32;20243;-77
2021/01/09 05:25:25;;;;;;;15.27;8.03;;;;;;;;;;4408745;32;20216;-77
2021/01/09 05:27:54;;;;;;;15.07;8.37;;;;;;;;;;4410170;32;20504;-77
2021/01/09 05:30:20;;;;;;;11.33;6.67;;;;;;;;;;4408787;32;20165;-77
2021/01/09 05:32:46;;;;;;;13.43;7.40;;;;;;;;;;4409350;32;20196;-77
2021/01/09 05:35:22;;;;;;;13.73;6.40;;;;;;;;;;4409039;32;20472;-77
2021/01/09 05:37:48;;;;;;;12.00;7.37;;;;;;;;;;4408873;32;20510;-77
2021/01/09 05:40:16;;;;;;;10.83;6.27;;;;;;;;;;4408826;32;20181;-77
2021/01/09 05:42:41;;;;;;;12.87;6.97;;;;;;;;;;4408446;32;20482;-77
2021/01/09 05:45:07;;;;;;;14.17;7.57;;;;;;;;;;4408519;32;20196;-77
2021/01/09 05:47:32;;;;;;;12.27;7.47;;;;;;;;;;4408808;32;20164;-77
2021/01/09 05:49:58;;;;;;;10.37;7.00;;;;;;;;;;4409000;32;20294;-77
2021/01/09 05:52:26;;;;;;;11.70;6.10;;;;;;;;;;4408298;32;20189;-77
2021/01/09 05:55:01;;;;;;;12.57;7.13;;;;;;;;;;4408361;32;20235;-77
2021/01/09 05:57:34;;;;;;;13.23;6.47;;;;;;;;;;4408271;32;20188;-77
2021/01/09 06:00:03;;;;;;;13.47;7.43;;;;;;;;;;4408221;32;20516;-77
2021/01/09 06:02:31;;;;;;;16.33;7.17;;;;;;;;;;4408201;32;20201;-77
2021/01/09 06:05:02;;;;;;;16.17;7.60;;;;;;;;;;4409017;32;20504;-77
2021/01/09 06:07:47;;;;;;;16.90;8.33;;;;;;;;;;4409297;32;20621;-77
2021/01/09 06:10:15;;;;;;;18.77;9.20;;;;;;;;;;4408067;32;20229;-77
2021/01/09 06:13:01;;;;;;;15.23;7.30;;;;;;;;;;4401667;32;20639;-77
2021/01/09 06:15:28;;;;;;;16.70;7.93;;;;;;;;;;4408498;32;20157;-77
2021/01/09 06:17:54;;;;;;;14.03;8.47;;;;;;;;;;4408371;32;20211;-77
2021/01/09 06:20:19;;;;;;;13.67;7.43;;;;;;;;;;4407818;32;20161;-77
2021/01/09 06:22:47;;;;;;;15.17;8.63;;;;;;;;;;4408212;32;20154;-77
2021/01/09 06:25:13;;;;;;;17.30;8.17;;;;;;;;;;4408082;32;20609;-77
2021/01/09 06:27:40;;;;;;;14.07;9.40;;;;;;;;;;4407187;32;20196;-77
2021/01/09 06:30:08;;;;;;;16.70;8.40;;;;;;;;;;4407815;32;20186;-77
2021/01/09 06:32:36;;;;;;;14.30;8.20;;;;;;;;;;4408063;32;20162;-77
2021/01/09 06:35:04;;;;;;;17.67;9.03;;;;;;;;;;4408121;32;20233;-77
2021/01/09 06:37:29;;;;;;;21.17;9.50;;;;;;;;;;4408139;32;20164;-78
2021/01/09 06:39:55;;;;;;;20.33;9.00;;;;;;;;;;4407918;32;20161;-77
2021/01/09 06:42:21;;;;;;;14.43;7.90;;;;;;;;;;4408078;32;20188;-77
2021/01/09 06:44:50;;;;;;;15.13;8.27;;;;;;;;;;4407558;32;20188;-78
2021/01/09 06:47:34;;;;;;;16.57;8.63;;;;;;;;;;4407638;32;20226;-78
2021/01/09 06:50:18;;;;;;;20.77;9.30;;;;;;;;;;4407401;32;20275;-77
2021/01/09 06:52:52;;;;;;;17.97;8.43;;;;;;;;;;4407189;32;20222;-78
2021/01/09 06:55:38;;;;;;;13.20;8.63;;;;;;;;;;4407857;32;20173;-78
2021/01/09 06:58:03;;;;;;;20.00;9.73;;;;;;;;;;4394809;32;20207;-77
2021/01/09 07:00:34;;;;;;;14.30;8.33;;;;;;;;;;4407362;32;20691;-78
2021/01/09 07:03:13;;;;;;;20.70;9.10;;;;;;;;;;4407384;32;20179;-78
2021/01/09 07:05:47;;;;;;;15.03;9.20;;;;;;;;;;4407282;32;20225;-77
2021/01/09 07:08:21;;;;;;;17.10;8.80;;;;;;;;;;4392353;32;20222;-77
2021/01/09 07:10:48;;;;;;;18.60;10.17;;;;;;;;;;4415370;32;20138;-77
2021/01/09 07:13:14;;;;;;;17.10;9.57;;;;;;;;;;4407427;32;20165;-77
2021/01/09 07:15:40;;;;;;;14.83;8.07;;;;;;;;;;4420929;32;20485;-77
2021/01/09 07:18:06;;;;;;;18.67;8.93;;;;;;;;;;4407076;32;20181;-77
2021/01/09 07:20:58;;;;;;;18.90;9.37;;;;;;;;;;4394590;32;20547;-77
2021/01/09 07:23:26;;;;;;;16.93;8.50;;;;;;;;;;4417486;32;20217;-78
2021/01/09 07:25:54;;;;;;;18.73;8.67;;;;;;;;;;4407213;32;20667;-79
2021/01/09 07:28:21;;;;;;;13.50;7.90;;;;;;;;;;4406903;32;20586;-78
2021/01/09 07:30:46;;;;;;;20.37;9.07;;;;;;;;;;4407562;32;20161;-77
2021/01/09 07:33:13;;;;;;;14.50;9.03;;;;;;;;;;4406930;32;20645;-77
2021/01/09 07:35:43;;;;;;;23.57;10.13;;;;;;;;;;4406600;32;20190;-78
2021/01/09 07:38:08;;;;;;;21.87;9.20;;;;;;;;;;4407145;32;20165;-79
2021/01/09 07:40:43;;;;;;;15.90;9.07;;;;;;;;;;4407281;32;20290;-78
2021/01/09 07:43:31;;;;;;;24.30;10.13;;;;;;;;;;4406748;32;20511;-78
2021/01/09 07:46:00;;;;;;;19.40;10.20;;;;;;;;;;4394116;32;20537;-78
2021/01/09 07:48:30;;;;;;;19.43;9.47;;;;;;;;;;4407381;32;20617;-78
2021/01/09 07:50:58;;;;;;;22.90;11.60;;;;;;;;;;4393869;32;20448;-77
2021/01/09 07:53:27;;;;;;;23.80;10.67;;;;;;;;;;4421543;32;20203;-77
2021/01/09 07:55:53;;;;;;;15.57;7.83;;;;;;;;;;4407150;32;20176;-78
2021/01/09 07:58:38;;;;;;;16.90;8.70;;;;;;;;;;4406576;32;20192;-78
2021/01/09 08:01:03;;;;;;;22.70;10.60;;;;;;;;;;4407053;32;20165;-78
2021/01/09 08:03:29;;;;;;;21.07;10.27;;;;;;;;;;4406494;32;20215;-78
2021/01/09 08:05:57;;;;;;;16.87;9.37;;;;;;;;;;4406626;32;20164;-78
2021/01/09 08:08:47;;;;;;;17.47;9.03;;;;;;;;;;4406934;32;20150;-78
2021/01/09 08:11:12;;;;;;;21.83;10.40;;;;;;;;;;4400815;32;20245;-78
2021/01/09 08:13:40;;;;;;;21.43;10.73;;;;;;;;;;4406315;32;20200;-77
2021/01/09 08:16:06;;;;;;;20.70;10.87;;;;;;;;;;4406201;32;20215;-76
2021/01/09 08:18:33;;;;;;;24.03;9.10;;;;;;;;;;4420069;32;20145;-77
2021/01/09 08:20:58;;;;;;;25.53;9.20;;;;;;;;;;4406343;32;20228;-77
2021/01/09 08:23:25;;;;;;;16.73;7.60;;;;;;;;;;4406299;32;20494;-76
2021/01/09 08:25:51;;;;;;;23.93;8.27;;;;;;;;;;4406747;32;20142;-78
2021/01/09 08:28:17;;;;;;;22.37;9.23;;;;;;;;;;4406610;32;20557;-77
2021/01/09 08:30:43;;;;;;;24.70;9.87;;;;;;;;;;4419952;32;20149;-78
2021/01/09 08:33:16;;;;;;;21.73;9.17;;;;;;;;;;4405696;32;20664;-78
2021/01/09 08:35:59;;;;;;;20.17;10.07;;;;;;;;;;4419148;32;20165;-79
2021/01/09 08:38:28;;;;;;;23.50;9.90;;;;;;;;;;4393544;32;20165;-77
2021/01/09 08:41:03;;;;;;;16.77;8.90;;;;;;;;;;4406778;32;20588;-77
2021/01/09 08:43:29;;;;;;;23.53;11.47;;;;;;;;;;4420140;32;20149;-77
2021/01/09 08:45:56;;;;;;;20.03;10.20;;;;;;;;;;4393588;32;20162;-77
2021/01/09 08:48:21;;;;;;;22.53;10.03;;;;;;;;;;4393927;32;20165;-79
2021/01/09 08:50:59;;;;;;;19.27;10.80;;;;;;;;;;4407405;32;20157;-78
2021/01/09 08:53:25;;;;;;;26.10;11.63;;;;;;;;;;4410034;32;20154;-78
2021/01/09 08:55:58;;;;;;;23.90;11.80;;;;;;;;;;4409305;32;20193;-77
2021/01/09 08:58:23;;;;;;;18.77;10.93;;;;;;;;;;4423244;32;20125;-77
2021/01/09 09:00:52;;;;;;;26.30;12.77;;;;;;;;;;4408773;32;20581;-77
2021/01/09 09:03:21;;;;;;;21.83;12.17;;;;;;;;;;4409519;32;20222;-77
2021/01/09 09:05:47;;;;;;;20.47;10.97;;;;;;;;;;4408965;32;20185;-77
2021/01/09 09:08:13;;;;;;;23.57;11.40;;;;;;;;;;4408722;32;20168;-77
2021/01/09 09:10:39;;;;;;;26.37;11.47;;;;;;;;;;4409027;32;20605;-77
2021/01/09 09:13:21;;;;;;;19.37;10.50;;;;;;;;;;4408766;32;20166;-77
2021/01/09 09:15:47;;;;;;;21.53;10.13;;;;;;;;;;4408816;32;20161;-77
2021/01/09 09:18:16;;;;;;;20.73;9.40;;;;;;;;;;4409339;32;20562;-78
2021/01/09 09:20:51;;;;;;;22.87;8.13;;;;;;;;;;4408574;32;20154;-79
2021/01/09 09:23:19;;;;;;;16.27;7.00;;;;;;;;;;4409575;32;20157;-78
2021/01/09 09:25:45;;;;;;;10.43;6.90;;;;;;;;;;4409005;32;20169;-78
2021/01/09 09:28:13;;;;;;;20.30;8.00;;;;;;;;;;4408702;32;20514;-78
2021/01/09 09:30:41;;;;;;;20.87;8.43;;;;;;;;;;4408467;32;20234;-77
2021/01/09 09:33:13;;;;;;;12.53;6.00;;;;;;;;;;4408308;32;20219;-79
2021/01/09 09:35:39;;;;;;;12.87;6.70;;;;;;;;;;4409023;32;20277;-78
2021/01/09 09:38:06;;;;;;;14.47;6.33;;;;;;;;;;4408799;32;20169;-78
2021/01/09 09:40:34;;;;;;;12.83;4.80;;;;;;;;;;4422100;32;20142;-78
2021/01/09 09:43:13;;;;;;;7.50;4.10;;;;;;;;;;4408262;32;20161;-78
2021/01/09 09:45:55;;;;;;;8.70;3.90;;;;;;;;;;4408505;32;20158;-80
2021/01/09 09:48:27;;;;;;;10.57;5.07;;;;;;;;;;4408623;32;20195;-77
2021/01/09 09:51:00;;;;;;;11.70;3.80;;;;;;;;;;4408451;32;20196;-78
2021/01/09 09:53:26;;;;;;;8.73;3.97;;;;;;;;;;4408642;32;20166;-77
2021/01/09 09:55:51;;;;;;;11.67;3.90;;;;;;;;;;4407885;32;20215;-78
2021/01/09 09:58:27;;;;;;;10.23;3.83;;;;;;;;;;4408060;32;20210;-78
2021/01/09 10:00:53;;;;;;;8.10;4.23;;;;;;;;;;4407816;32;20233;-78
2021/01/09 10:03:21;;;;;;;13.03;5.13;;;;;;;;;;4407703;32;20205;-78
2021/01/09 10:06:04;;;;;;;9.50;5.30;;;;;;;;;;4422510;32;20168;-79
2021/01/09 10:08:29;;;;;;;10.73;4.90;;;;;;;;;;4394923;32;20223;-78
2021/01/09 10:11:00;;;;;;;14.30;5.83;;;;;;;;;;4408156;32;20161;-77
2021/01/09 10:13:28;;;;;;;9.57;4.90;;;;;;;;;;4408214;32;20229;-78
2021/01/09 10:15:56;;;;;;;11.60;5.07;;;;;;;;;;4408505;32;20166;-77
2021/01/09 10:18:21;;;;;;;10.03;5.10;;;;;;;;;;4408285;32;20188;-78
2021/01/09 10:20:46;;;;;;;10.80;5.03;;;;;;;;;;4407551;32;20166;-76
2021/01/09 10:23:11;;;;;;;11.47;5.10;;;;;;;;;;4407575;32;20166;-78
2021/01/09 10:25:37;;;;;;;11.73;5.20;;;;;;;;;;4407052;32;20158;-76
2021/01/09 10:28:02;;;;;;;12.70;5.70;;;;;;;;;;4407360;32;20162;-78
2021/01/09 10:30:30;;;;;;;10.57;4.67;;;;;;;;;;4407476;32;20237;-77
2021/01/09 10:32:59;;;;;;;10.67;4.90;;;;;;;;;;4407082;32;20200;-77
2021/01/09 10:35:24;;;;;;;7.97;4.17;;;;;;;;;;4407656;32;20218;-78
2021/01/09 10:37:49;;;;;;;11.47;4.13;;;;;;;;;;4407648;32;20169;-78
2021/01/09 10:40:15;;;;;;;11.80;4.30;;;;;;;;;;4407343;32;20587;-78
2021/01/09 10:42:42;;;;;;;17.07;4.40;;;;;;;;;;4394611;32;20170;-78
2021/01/09 10:45:07;;;;;;;9.80;3.60;;;;;;;;;;4407334;32;20161;-78
2021/01/09 10:47:33;;;;;;;8.27;4.53;;;;;;;;;;4407535;32;20184;-78
2021/01/09 10:49:58;;;;;;;9.83;4.20;;;;;;;;;;4407459;32;20358;-75
2021/01/09 10:52:23;;;;;;;7.97;3.93;;;;;;;;;;4421237;32;20222;-77
2021/01/09 10:54:49;;;;;;;10.90;4.47;;;;;;;;;;4420846;32;20173;-78
2021/01/09 10:57:15;;;;;;;10.73;4.03;;;;;;;;;;4421365;32;20253;-77
2021/01/09 10:59:41;;;;;;;9.33;3.97;;;;;;;;;;4408256;32;20181;-78
2021/01/09 11:02:06;;;;;;;9.67;4.77;;;;;;;;;;4420927;32;20465;-76
2021/01/09 11:04:32;;;;;;;12.60;4.07;;;;;;;;;;4407188;32;20500;-79
2021/01/09 11:06:58;;;;;;;8.17;3.70;;;;;;;;;;4407196;32;20526;-79
2021/01/09 11:09:24;;;;;;;8.87;3.53;;;;;;;;;;4407113;32;20181;-78
2021/01/09 11:11:51;;;;;;;9.67;3.53;;;;;;;;;;4420990;32;20456;-78
2021/01/09 11:14:17;;;;;;;10.40;3.90;;;;;;;;;;4420768;32;20188;-78
2021/01/09 11:16:42;;;;;;;4.33;2.53;;;;;;;;;;4421173;32;20137;-79
2021/01/09 11:19:09;;;;;;;11.87;3.60;;;;;;;;;;4406724;32;20625;-78
2021/01/09 11:21:37;;;;;;;8.60;3.30;;;;;;;;;;4407608;32;20182;-79
2021/01/09 11:24:24;;;;;;;;;;;;;;;;;;;;;
2021/01/09 11:26:54;;;;;;;5.62;2.15;;;;;;;;;;4412775;32;20214;-79
2021/01/09 11:29:21;;;;;;;8.65;2.15;;;;;;;;;;4407317;32;20571;-78
2021/01/09 11:31:46;;;;;;;6.57;1.85;;;;;;;;;;4406632;32;20165;-79
2021/01/09 11:34:11;;;;;;;4.25;1.62;;;;;;;;;;4407611;32;20188;-80
2021/01/09 11:36:36;;;;;;;5.90;1.70;;;;;;;;;;4407058;32;20165;-80
2021/01/09 11:39:02;;;;;;;5.55;1.65;;;;;;;;;;4421253;32;20456;-80
2021/01/09 11:41:29;;;;;;;6.57;2.08;;;;;;;;;;4406594;32;20492;-79
2021/01/09 11:43:54;;;;;;;4.10;1.70;;;;;;;;;;4420817;32;20142;-79
2021/01/09 11:46:25;;;;;;;5.82;1.80;;;;;;;;;;4407363;32;20149;-80
2021/01/09 11:48:50;;;;;;;7.78;1.98;;;;;;;;;;4407558;32;20180;-76
2021/01/09 11:51:23;;;;;;;4.18;1.50;;;;;;;;;;4421025;32;20176;-79
2021/01/09 11:53:48;;;;;;;6.40;1.50;;;;;;;;;;4407069;32;20169;-79
2021/01/09 11:56:18;;;;;;;7.57;1.90;;;;;;;;;;4420810;32;20137;-79
2021/01/09 11:58:43;;;;;;;5.93;1.55;;;;;;;;;;4406805;32;20157;-79
2021/01/09 12:01:12;;;;;;;2.45;1.40;;;;;;;;;;4406347;32;20239;-79
2021/01/09 12:03:37;;;;;;;7.32;1.60;;;;;;;;;;4406813;32;20162;-79
2021/01/09 12:06:02;;;;;;;3.10;1.20;;;;;;;;;;4406371;32;20161;-79
2021/01/09 12:08:28;;;;;;;6.35;1.50;;;;;;;;;;4406450;32;20612;-80
2021/01/09 12:10:53;;;;;;;5.15;1.35;;;;;;;;;;4406742;32;20668;-80
2021/01/09 12:13:18;;;;;;;4.40;1.40;;;;;;;;;;4406133;32;20607;-79
2021/01/09 12:15:47;;;;;;;3.33;1.30;;;;;;;;;;4406218;32;20196;-80
2021/01/09 12:18:12;;;;;;;6.05;1.30;;;;;;;;;;4406800;32;20161;-79
2021/01/09 12:20:39;;;;;;;5.68;1.45;;;;;;;;;;4407141;32;20204;-79
2021/01/09 12:23:07;;;;;;;5.57;1.40;;;;;;;;;;4406180;32;20161;-81
2021/01/09 12:25:32;;;;;;;5.87;1.33;;;;;;;;;;4405750;32;20184;-81
2021/01/09 12:28:09;;;;;;;3.90;1.20;;;;;;;;;;4405920;32;20157;-81
2021/01/09 12:30:34;;;;;;;6.90;1.42;;;;;;;;;;4406111;32;20211;-81
2021/01/09 12:33:01;;;;;;;3.58;1.25;;;;;;;;;;4420373;32;20145;-79
2021/01/09 12:35:27;;;;;;;5.37;1.45;;;;;;;;;;4420121;32;20543;-80
2021/01/09 12:37:55;;;;;;;6.50;0.90;;;;;;;;;;4406544;32;20188;-79
2021/01/09 12:40:23;;;;;;;2.45;0.82;;;;;;;;;;4406224;32;20246;-79
2021/01/09 12:42:52;;;;;;;3.45;0.77;;;;;;;;;;4405947;32;20561;-80
2021/01/09 12:45:17;;;;;;;5.60;1.20;;;;;;;;;;4406264;32;20208;-81
2021/01/09 12:47:46;;;;;;;2.87;0.75;;;;;;;;;;4406428;32;20154;-80
2021/01/09 12:50:11;;;;;;;3.40;0.85;;;;;;;;;;4405935;32;20260;-80
2021/01/09 12:52:39;;;;;;;2.75;0.70;;;;;;;;;;4405975;32;20190;-82
2021/01/09 12:55:05;;;;;;;4.22;0.90;;;;;;;;;;4405996;32;20240;-81
2021/01/09 12:57:31;;;;;;;5.87;1.37;;;;;;;;;;4406293;32;20157;-80
2021/01/09 12:59:56;;;;;;;4.12;1.00;;;;;;;;;;4405839;32;20601;-80
2021/01/09 13:02:21;;;;;;;5.37;0.75;;;;;;;;;;4405785;32;20518;-82
2021/01/09 13:04:46;;;;;;;3.67;0.82;;;;;;;;;;4405962;32;20196;-81
2021/01/09 13:07:14;;;;;;;2.62;0.70;;;;;;;;;;4419716;32;20137;-80
2021/01/09 13:09:40;;;;;;;2.53;0.60;;;;;;;;;;4405891;32;20212;-80
2021/01/09 13:12:06;;;;;;;4.53;0.70;;;;;;;;;;4419949;32;20548;-81
2021/01/09 13:14:56;;;;;;;3.70;1.25;;;;;;;;;;4406243;32;20154;-80
2021/01/09 13:17:22;;;;;;;1.37;0.60;;;;;;;;;;4405713;32;20217;-78
2021/01/09 13:19:48;;;;;;;3.33;1.12;;;;;;;;;;4419823;32;20183;-81
2021/01/09 13:22:13;;;;;;;6.07;1.12;;;;;;;;;;4405935;32;20162;-81
2021/01/09 13:24:38;;;;;;;3.17;0.90;;;;;;;;;;4405600;32;20227;-80
2021/01/09 13:27:04;;;;;;;3.12;0.80;;;;;;;;;;4405777;32;20167;-80
2021/01/09 13:29:38;;;;;;;3.40;0.70;;;;;;;;;;4420878;32;20134;-80
2021/01/09 13:32:10;;;;;;;4.20;1.17;;;;;;;;;;4406838;32;20188;-80
2021/01/09 13:34:39;;;;;;;3.65;0.90;;;;;;;;;;4406162;32;20209;-82
2021/01/09 13:37:06;;;;;;;4.93;0.80;;;;;;;;;;4407788;32;20230;-80
2021/01/09 13:39:31;;;;;;;1.55;0.60;;;;;;;;;;4422825;32;20164;-81
2021/01/09 13:41:57;;;;;;;3.72;0.75;;;;;;;;;;4408941;32;20475;-80
2021/01/09 13:44:22;;;;;;;3.50;0.98;;;;;;;;;;4408675;32;20195;-82
2021/01/09 13:46:56;;;;;;;3.22;0.70;;;;;;;;;;4408613;32;20161;-80
2021/01/09 13:49:22;;;;;;;2.87;0.90;;;;;;;;;;4422574;32;20187;-80
2021/01/09 13:51:47;;;;;;;3.28;1.08;;;;;;;;;;4407864;32;20165;-80
2021/01/09 13:54:13;;;;;;;3.83;0.80;;;;;;;;;;4408453;32;20220;-81
2021/01/09 13:56:43;;;;;;;3.12;0.82;;;;;;;;;;4408199;32;20480;-82
2021/01/09 13:59:09;;;;;;;6.45;1.00;;;;;;;;;;4408171;32;20184;-82
2021/01/09 14:01:35;;;;;;;2.65;0.80;;;;;;;;;;4421967;32;20180;-80
2021/01/09 14:04:10;;;;;;;4.47;1.10;;;;;;;;;;4407791;32;20161;-81
2021/01/09 14:06:35;;;;;;;4.95;1.05;;;;;;;;;;4408402;32;20217;-81
2021/01/09 14:09:03;;;;;;;6.62;1.55;;;;;;;;;;4407776;32;20178;-80
2021/01/09 14:11:31;;;;;;;2.90;0.80;;;;;;;;;;4408540;32;20177;-81
2021/01/09 14:16:42;;;;;;;5.82;1.10;;;;;;;;;;4413471;32;20157;-81
2021/01/09 14:19:08;;;;;;;5.97;1.10;;;;;;;;;;4407800;32;20165;-81
2021/01/09 14:24:24;;;;;;;11.47;2.90;;;;;;;;;;4413653;32;20185;-80
2021/01/09 14:26:50;;;;;;;7.00;1.03;;;;;;;;;;4422330;32;20191;-79
2021/01/09 14:29:30;;;;;;;5.40;1.27;;;;;;;;;;4408269;32;20162;-80
2021/01/09 14:31:59;;;;;;;3.30;0.87;;;;;;;;;;4407959;32;20184;-79
2021/01/09 14:34:24;;;;;;;5.17;1.20;;;;;;;;;;4407532;32;20183;-79
2021/01/09 14:36:55;;;;;;;6.17;2.00;;;;;;;;;;4407603;32;20159;-79
2021/01/09 14:39:23;;;;;;;4.27;0.90;;;;;;;;;;4408449;32;20162;-79
2021/01/09 14:41:58;;;;;;;7.27;1.23;;;;;;;;;;4408362;32;20514;-80